sensor_id;sensor_type;location;lat;lon;timestamp;P1;durP1;ratioP1;P2;durP2;ratioP2
12214;SDS011;6170;42.206;24.142;2023-08-07T00:01:03;1999.90;;;999.90;;
12214;SDS011;6170;42.206;24.142;2023-08-07T00:03:30;1999.90;;;999.90;;
12214;SDS011;6170;42.206;24.142;2023-08-07T00:05:58;1999.90;;;999.90;;
12214;SDS011;6170;42.206;24.142;2023-08-07T00:08:25;1999.90;;;999.90;;
12214;SDS011;6170;42.206;24.142;2023-08-07T00:10:54;1999.90;;;999.90;;
12214;SDS011;6170;42.206;24.142;2023-08-07T00:13:31;1999.90;;;999.90;;
12214;SDS011;6170;42.206;24.142;2023-08-07T00:15:58;1999.90;;;999.90;;
12214;SDS011;6170;42.206;24.142;2023-08-07T00:18:25;1999.90;;;999.90;;
12214;SDS011;6170;42.206;24.142;2023-08-07T00:20:54;1999.90;;;999.90;;
12214;SDS011;6170;42.206;24.142;2023-08-07T00:23:21;1999.90;;;999.90;;
12214;SDS011;6170;42.206;24.142;2023-08-07T00:25:48;1999.90;;;999.90;;
12214;SDS011;6170;42.206;24.142;2023-08-07T00:28:17;1999.90;;;999.90;;
12214;SDS011;6170;42.206;24.142;2023-08-07T00:30:44;1999.90;;;999.90;;
12214;SDS011;6170;42.206;24.142;2023-08-07T00:33:11;1999.90;;;999.90;;
12214;SDS011;6170;42.206;24.142;2023-08-07T00:35:38;1999.90;;;999.90;;
12214;SDS011;6170;42.206;24.142;2023-08-07T00:38:06;1999.90;;;999.90;;
12214;SDS011;6170;42.206;24.142;2023-08-07T00:40:36;1999.90;;;999.90;;
12214;SDS011;6170;42.206;24.142;2023-08-07T00:43:04;1999.90;;;999.90;;
12214;SDS011;6170;42.206;24.142;2023-08-07T00:45:34;1999.90;;;999.90;;
12214;SDS011;6170;42.206;24.142;2023-08-07T00:48:04;1999.90;;;999.90;;
12214;SDS011;6170;42.206;24.142;2023-08-07T00:50:31;1999.90;;;999.90;;
12214;SDS011;6170;42.206;24.142;2023-08-07T00:52:59;1999.90;;;999.90;;
12214;SDS011;6170;42.206;24.142;2023-08-07T00:55:27;1999.90;;;999.90;;
12214;SDS011;6170;42.206;24.142;2023-08-07T00:57:55;1999.90;;;999.90;;
12214;SDS011;6170;42.206;24.142;2023-08-07T01:00:24;1999.90;;;999.90;;
12214;SDS011;6170;42.206;24.142;2023-08-07T01:02:53;1999.90;;;999.90;;
12214;SDS011;6170;42.206;24.142;2023-08-07T01:05:23;1999.90;;;999.90;;
12214;SDS011;6170;42.206;24.142;2023-08-07T01:07:51;1999.90;;;999.90;;
12214;SDS011;6170;42.206;24.142;2023-08-07T01:10:22;1999.90;;;999.90;;
12214;SDS011;6170;42.206;24.142;2023-08-07T01:13:04;1999.90;;;999.90;;
12214;SDS011;6170;42.206;24.142;2023-08-07T01:15:35;1999.90;;;999.90;;
12214;SDS011;6170;42.206;24.142;2023-08-07T01:18:06;1999.90;;;999.90;;
12214;SDS011;6170;42.206;24.142;2023-08-07T01:20:34;1999.90;;;999.90;;
12214;SDS011;6170;42.206;24.142;2023-08-07T01:23:03;1999.90;;;999.90;;
12214;SDS011;6170;42.206;24.142;2023-08-07T01:25:30;1999.90;;;999.90;;
12214;SDS011;6170;42.206;24.142;2023-08-07T01:28:00;1999.90;;;999.90;;
12214;SDS011;6170;42.206;24.142;2023-08-07T01:30:33;1999.90;;;999.90;;
12214;SDS011;6170;42.206;24.142;2023-08-07T01:33:07;1999.90;;;999.90;;
12214;SDS011;6170;42.206;24.142;2023-08-07T01:38:08;1999.90;;;999.90;;
12214;SDS011;6170;42.206;24.142;2023-08-07T01:40:37;1999.90;;;999.90;;
12214;SDS011;6170;42.206;24.142;2023-08-07T01:43:05;1999.90;;;999.90;;
12214;SDS011;6170;42.206;24.142;2023-08-07T01:45:33;1999.90;;;999.90;;
12214;SDS011;6170;42.206;24.142;2023-08-07T01:48:00;1999.90;;;999.90;;
12214;SDS011;6170;42.206;24.142;2023-08-07T01:50:28;1999.90;;;999.90;;
12214;SDS011;6170;42.206;24.142;2023-08-07T01:52:56;1999.90;;;999.90;;
12214;SDS011;6170;42.206;24.142;2023-08-07T01:55:25;1999.90;;;999.90;;
12214;SDS011;6170;42.206;24.142;2023-08-07T01:57:52;1999.90;;;999.90;;
12214;SDS011;6170;42.206;24.142;2023-08-07T02:00:19;1999.90;;;999.90;;
12214;SDS011;6170;42.206;24.142;2023-08-07T02:02:47;1999.90;;;999.90;;
12214;SDS011;6170;42.206;24.142;2023-08-07T02:05:14;1999.90;;;999.90;;
12214;SDS011;6170;42.206;24.142;2023-08-07T02:07:42;1999.90;;;999.90;;
12214;SDS011;6170;42.206;24.142;2023-08-07T02:10:09;1999.90;;;999.90;;
12214;SDS011;6170;42.206;24.142;2023-08-07T02:12:38;1999.90;;;999.90;;
12214;SDS011;6170;42.206;24.142;2023-08-07T02:15:06;1999.90;;;999.90;;
12214;SDS011;6170;42.206;24.142;2023-08-07T02:17:34;1999.90;;;999.90;;
12214;SDS011;6170;42.206;24.142;2023-08-07T02:20:04;1999.90;;;999.90;;
12214;SDS011;6170;42.206;24.142;2023-08-07T02:22:32;1999.90;;;999.90;;
12214;SDS011;6170;42.206;24.142;2023-08-07T02:24:59;1999.90;;;999.90;;
12214;SDS011;6170;42.206;24.142;2023-08-07T02:27:26;1999.90;;;999.90;;
12214;SDS011;6170;42.206;24.142;2023-08-07T02:29:55;1999.90;;;999.90;;
12214;SDS011;6170;42.206;24.142;2023-08-07T02:32:22;1999.90;;;999.90;;
12214;SDS011;6170;42.206;24.142;2023-08-07T02:34:49;1999.90;;;999.90;;
12214;SDS011;6170;42.206;24.142;2023-08-07T02:37:16;1999.90;;;999.90;;
12214;SDS011;6170;42.206;24.142;2023-08-07T02:39:44;1999.90;;;999.90;;
12214;SDS011;6170;42.206;24.142;2023-08-07T02:42:11;1999.90;;;999.90;;
12214;SDS011;6170;42.206;24.142;2023-08-07T02:44:38;1999.90;;;999.90;;
12214;SDS011;6170;42.206;24.142;2023-08-07T02:47:07;1999.90;;;999.90;;
12214;SDS011;6170;42.206;24.142;2023-08-07T02:49:34;1999.90;;;999.90;;
12214;SDS011;6170;42.206;24.142;2023-08-07T02:52:01;1999.90;;;999.90;;
12214;SDS011;6170;42.206;24.142;2023-08-07T02:54:29;1999.90;;;999.90;;
12214;SDS011;6170;42.206;24.142;2023-08-07T02:56:56;1999.90;;;999.90;;
12214;SDS011;6170;42.206;24.142;2023-08-07T02:59:24;1999.90;;;999.90;;
12214;SDS011;6170;42.206;24.142;2023-08-07T03:01:51;1999.90;;;999.90;;
12214;SDS011;6170;42.206;24.142;2023-08-07T03:04:21;1999.90;;;999.90;;
12214;SDS011;6170;42.206;24.142;2023-08-07T03:06:48;1999.90;;;999.90;;
12214;SDS011;6170;42.206;24.142;2023-08-07T03:09:15;1999.90;;;999.90;;
12214;SDS011;6170;42.206;24.142;2023-08-07T03:11:42;1999.90;;;999.90;;
12214;SDS011;6170;42.206;24.142;2023-08-07T03:14:09;1999.90;;;999.90;;
12214;SDS011;6170;42.206;24.142;2023-08-07T03:16:36;1999.90;;;999.90;;
12214;SDS011;6170;42.206;24.142;2023-08-07T03:19:04;1999.90;;;999.90;;
12214;SDS011;6170;42.206;24.142;2023-08-07T03:21:32;1999.90;;;999.90;;
12214;SDS011;6170;42.206;24.142;2023-08-07T03:24:00;1999.90;;;999.90;;
12214;SDS011;6170;42.206;24.142;2023-08-07T03:26:27;1999.90;;;999.90;;
12214;SDS011;6170;42.206;24.142;2023-08-07T03:28:54;1999.90;;;999.90;;
12214;SDS011;6170;42.206;24.142;2023-08-07T03:31:21;1999.90;;;999.90;;
12214;SDS011;6170;42.206;24.142;2023-08-07T03:33:48;1999.90;;;999.90;;
12214;SDS011;6170;42.206;24.142;2023-08-07T03:36:15;1999.90;;;999.90;;
12214;SDS011;6170;42.206;24.142;2023-08-07T03:38:44;1999.90;;;999.90;;
12214;SDS011;6170;42.206;24.142;2023-08-07T03:41:11;1999.90;;;999.90;;
12214;SDS011;6170;42.206;24.142;2023-08-07T03:43:38;1999.90;;;999.90;;
12214;SDS011;6170;42.206;24.142;2023-08-07T03:46:06;1999.90;;;999.90;;
12214;SDS011;6170;42.206;24.142;2023-08-07T03:48:33;1999.90;;;999.90;;
12214;SDS011;6170;42.206;24.142;2023-08-07T03:51:03;1999.90;;;999.90;;
12214;SDS011;6170;42.206;24.142;2023-08-07T03:53:31;1999.90;;;999.90;;
12214;SDS011;6170;42.206;24.142;2023-08-07T03:55:59;1999.90;;;999.90;;
12214;SDS011;6170;42.206;24.142;2023-08-07T03:58:26;1999.90;;;999.90;;
12214;SDS011;6170;42.206;24.142;2023-08-07T04:00:54;1999.90;;;999.90;;
12214;SDS011;6170;42.206;24.142;2023-08-07T04:03:22;1999.90;;;999.90;;
12214;SDS011;6170;42.206;24.142;2023-08-07T04:05:51;1999.90;;;999.90;;
12214;SDS011;6170;42.206;24.142;2023-08-07T04:08:19;1999.90;;;999.90;;
12214;SDS011;6170;42.206;24.142;2023-08-07T04:10:57;1999.90;;;999.90;;
12214;SDS011;6170;42.206;24.142;2023-08-07T04:13:27;1999.90;;;999.90;;
12214;SDS011;6170;42.206;24.142;2023-08-07T04:15:54;1999.90;;;999.90;;
12214;SDS011;6170;42.206;24.142;2023-08-07T04:18:22;1999.90;;;999.90;;
12214;SDS011;6170;42.206;24.142;2023-08-07T04:20:49;1999.90;;;999.90;;
12214;SDS011;6170;42.206;24.142;2023-08-07T04:23:17;1999.90;;;999.90;;
12214;SDS011;6170;42.206;24.142;2023-08-07T04:25:44;1999.90;;;999.90;;
12214;SDS011;6170;42.206;24.142;2023-08-07T04:28:15;1999.90;;;999.90;;
12214;SDS011;6170;42.206;24.142;2023-08-07T04:30:42;1999.90;;;999.90;;
12214;SDS011;6170;42.206;24.142;2023-08-07T04:33:10;1999.90;;;999.90;;
12214;SDS011;6170;42.206;24.142;2023-08-07T04:35:38;1999.90;;;999.90;;
12214;SDS011;6170;42.206;24.142;2023-08-07T04:38:05;1999.90;;;999.90;;
12214;SDS011;6170;42.206;24.142;2023-08-07T04:40:32;1999.90;;;999.90;;
12214;SDS011;6170;42.206;24.142;2023-08-07T04:42:59;1999.90;;;999.90;;
12214;SDS011;6170;42.206;24.142;2023-08-07T04:45:28;1321.95;;;795.95;;
12214;SDS011;6170;42.206;24.142;2023-08-07T04:47:55;656.53;;;602.67;;
12214;SDS011;6170;42.206;24.142;2023-08-07T04:50:23;1999.90;;;999.90;;
12214;SDS011;6170;42.206;24.142;2023-08-07T04:52:50;1999.90;;;999.90;;
12214;SDS011;6170;42.206;24.142;2023-08-07T04:55:17;1999.90;;;999.90;;
12214;SDS011;6170;42.206;24.142;2023-08-07T04:57:44;1999.90;;;999.90;;
12214;SDS011;6170;42.206;24.142;2023-08-07T05:00:13;1999.90;;;999.90;;
12214;SDS011;6170;42.206;24.142;2023-08-07T05:02:43;1999.90;;;999.90;;
12214;SDS011;6170;42.206;24.142;2023-08-07T05:05:10;1999.90;;;999.90;;
12214;SDS011;6170;42.206;24.142;2023-08-07T05:07:37;1999.90;;;999.90;;
12214;SDS011;6170;42.206;24.142;2023-08-07T05:10:04;1999.90;;;999.90;;
12214;SDS011;6170;42.206;24.142;2023-08-07T05:12:33;1999.90;;;999.90;;
12214;SDS011;6170;42.206;24.142;2023-08-07T05:15:00;1999.90;;;999.90;;
12214;SDS011;6170;42.206;24.142;2023-08-07T05:17:27;1321.05;;;794.60;;
12214;SDS011;6170;42.206;24.142;2023-08-07T05:19:56;1999.90;;;999.90;;
12214;SDS011;6170;42.206;24.142;2023-08-07T05:22:23;1999.90;;;999.90;;
12214;SDS011;6170;42.206;24.142;2023-08-07T05:24:50;1999.90;;;999.90;;
12214;SDS011;6170;42.206;24.142;2023-08-07T05:27:17;1999.90;;;999.90;;
12214;SDS011;6170;42.206;24.142;2023-08-07T05:29:44;1999.90;;;999.90;;
12214;SDS011;6170;42.206;24.142;2023-08-07T05:32:11;1999.90;;;999.90;;
12214;SDS011;6170;42.206;24.142;2023-08-07T05:34:40;1999.90;;;999.90;;
12214;SDS011;6170;42.206;24.142;2023-08-07T05:37:09;646.38;;;591.65;;
12214;SDS011;6170;42.206;24.142;2023-08-07T05:39:36;1999.90;;;999.90;;
12214;SDS011;6170;42.206;24.142;2023-08-07T05:42:03;1328.80;;;800.58;;
12214;SDS011;6170;42.206;24.142;2023-08-07T05:44:33;1999.90;;;999.90;;
12214;SDS011;6170;42.206;24.142;2023-08-07T05:47:00;1999.90;;;999.90;;
12214;SDS011;6170;42.206;24.142;2023-08-07T05:49:27;1335.65;;;806.83;;
12214;SDS011;6170;42.206;24.142;2023-08-07T05:51:54;1668.03;;;903.78;;
12214;SDS011;6170;42.206;24.142;2023-08-07T05:54:23;1999.90;;;999.90;;
12214;SDS011;6170;42.206;24.142;2023-08-07T05:56:50;1999.90;;;999.90;;
12214;SDS011;6170;42.206;24.142;2023-08-07T05:59:17;1670.07;;;905.33;;
12214;SDS011;6170;42.206;24.142;2023-08-07T06:01:45;1344.90;;;814.85;;
12214;SDS011;6170;42.206;24.142;2023-08-07T06:04:12;1013.08;;;718.00;;
12214;SDS011;6170;42.206;24.142;2023-08-07T06:06:39;704.42;;;642.53;;
12214;SDS011;6170;42.206;24.142;2023-08-07T06:09:07;1999.90;;;999.90;;
12214;SDS011;6170;42.206;24.142;2023-08-07T06:11:38;1352.57;;;822.28;;
12214;SDS011;6170;42.206;24.142;2023-08-07T06:14:05;1008.55;;;715.33;;
12214;SDS011;6170;42.206;24.142;2023-08-07T06:16:32;721.08;;;658.67;;
12214;SDS011;6170;42.206;24.142;2023-08-07T06:18:59;718.42;;;656.35;;
12214;SDS011;6170;42.206;24.142;2023-08-07T06:21:26;699.85;;;639.50;;
12214;SDS011;6170;42.206;24.142;2023-08-07T06:23:54;705.72;;;645.33;;
12214;SDS011;6170;42.206;24.142;2023-08-07T06:26:22;721.67;;;659.55;;
12214;SDS011;6170;42.206;24.142;2023-08-07T06:28:50;696.22;;;637.17;;
12214;SDS011;6170;42.206;24.142;2023-08-07T06:31:18;716.50;;;654.70;;
12214;SDS011;6170;42.206;24.142;2023-08-07T06:33:45;701.83;;;643.03;;
12214;SDS011;6170;42.206;24.142;2023-08-07T06:36:12;707.28;;;646.90;;
12214;SDS011;6170;42.206;24.142;2023-08-07T06:38:39;693.72;;;635.25;;
12214;SDS011;6170;42.206;24.142;2023-08-07T06:41:07;697.65;;;637.60;;
12214;SDS011;6170;42.206;24.142;2023-08-07T06:43:34;716.05;;;655.22;;
12214;SDS011;6170;42.206;24.142;2023-08-07T06:46:02;719.83;;;658.72;;
12214;SDS011;6170;42.206;24.142;2023-08-07T06:48:30;723.22;;;662.60;;
12214;SDS011;6170;42.206;24.142;2023-08-07T06:50:57;726.50;;;666.55;;
12214;SDS011;6170;42.206;24.142;2023-08-07T06:53:24;744.60;;;683.03;;
12214;SDS011;6170;42.206;24.142;2023-08-07T06:55:51;747.75;;;686.08;;
12214;SDS011;6170;42.206;24.142;2023-08-07T06:58:18;738.60;;;675.88;;
12214;SDS011;6170;42.206;24.142;2023-08-07T07:00:46;741.60;;;679.08;;
12214;SDS011;6170;42.206;24.142;2023-08-07T07:03:14;751.72;;;689.08;;
12214;SDS011;6170;42.206;24.142;2023-08-07T07:05:41;747.42;;;685.22;;
12214;SDS011;6170;42.206;24.142;2023-08-07T07:08:09;746.25;;;684.13;;
12214;SDS011;6170;42.206;24.142;2023-08-07T07:10:36;761.53;;;698.05;;
12214;SDS011;6170;42.206;24.142;2023-08-07T07:13:03;750.03;;;687.42;;
12214;SDS011;6170;42.206;24.142;2023-08-07T07:15:30;769.85;;;704.90;;
12214;SDS011;6170;42.206;24.142;2023-08-07T07:17:58;743.83;;;681.35;;
12214;SDS011;6170;42.206;24.142;2023-08-07T07:20:26;748.90;;;686.40;;
12214;SDS011;6170;42.206;24.142;2023-08-07T07:22:54;750.22;;;687.78;;
12214;SDS011;6170;42.206;24.142;2023-08-07T07:25:21;751.28;;;689.13;;
12214;SDS011;6170;42.206;24.142;2023-08-07T07:27:48;747.30;;;686.58;;
12214;SDS011;6170;42.206;24.142;2023-08-07T07:30:15;773.75;;;709.50;;
12214;SDS011;6170;42.206;24.142;2023-08-07T07:32:42;762.80;;;701.22;;
12214;SDS011;6170;42.206;24.142;2023-08-07T07:35:10;757.75;;;696.88;;
12214;SDS011;6170;42.206;24.142;2023-08-07T07:37:38;760.15;;;697.88;;
12214;SDS011;6170;42.206;24.142;2023-08-07T07:40:06;760.58;;;698.88;;
12214;SDS011;6170;42.206;24.142;2023-08-07T07:42:34;740.25;;;678.83;;
12214;SDS011;6170;42.206;24.142;2023-08-07T07:45:01;741.42;;;681.13;;
12214;SDS011;6170;42.206;24.142;2023-08-07T07:47:29;747.72;;;687.53;;
12214;SDS011;6170;42.206;24.142;2023-08-07T07:50:04;738.78;;;678.90;;
12214;SDS011;6170;42.206;24.142;2023-08-07T07:52:32;752.17;;;690.20;;
12214;SDS011;6170;42.206;24.142;2023-08-07T07:55:01;750.65;;;691.00;;
12214;SDS011;6170;42.206;24.142;2023-08-07T07:57:28;740.00;;;679.92;;
12214;SDS011;6170;42.206;24.142;2023-08-07T07:59:56;753.55;;;693.55;;
12214;SDS011;6170;42.206;24.142;2023-08-07T08:02:23;758.75;;;698.28;;
12214;SDS011;6170;42.206;24.142;2023-08-07T08:04:50;760.22;;;699.97;;
12214;SDS011;6170;42.206;24.142;2023-08-07T08:07:18;748.15;;;688.25;;
12214;SDS011;6170;42.206;24.142;2023-08-07T08:09:45;750.42;;;690.35;;
12214;SDS011;6170;42.206;24.142;2023-08-07T08:12:14;744.75;;;685.38;;
12214;SDS011;6170;42.206;24.142;2023-08-07T08:14:41;728.40;;;670.13;;
12214;SDS011;6170;42.206;24.142;2023-08-07T08:17:08;756.20;;;695.63;;
12214;SDS011;6170;42.206;24.142;2023-08-07T08:19:35;764.90;;;703.53;;
12214;SDS011;6170;42.206;24.142;2023-08-07T08:22:02;764.97;;;703.90;;
12214;SDS011;6170;42.206;24.142;2023-08-07T08:24:30;761.42;;;699.70;;
12214;SDS011;6170;42.206;24.142;2023-08-07T08:26:58;754.17;;;693.63;;
12214;SDS011;6170;42.206;24.142;2023-08-07T08:29:26;743.22;;;682.85;;
12214;SDS011;6170;42.206;24.142;2023-08-07T08:31:54;720.65;;;662.65;;
12214;SDS011;6170;42.206;24.142;2023-08-07T08:34:21;757.58;;;696.03;;
12214;SDS011;6170;42.206;24.142;2023-08-07T08:36:49;763.63;;;702.78;;
12214;SDS011;6170;42.206;24.142;2023-08-07T08:39:16;735.05;;;676.25;;
12214;SDS011;6170;42.206;24.142;2023-08-07T08:41:45;751.13;;;690.83;;
12214;SDS011;6170;42.206;24.142;2023-08-07T08:44:14;758.45;;;698.00;;
12214;SDS011;6170;42.206;24.142;2023-08-07T08:46:44;719.65;;;662.58;;
12214;SDS011;6170;42.206;24.142;2023-08-07T08:49:13;717.63;;;660.03;;
12214;SDS011;6170;42.206;24.142;2023-08-07T08:51:46;727.17;;;667.63;;
12214;SDS011;6170;42.206;24.142;2023-08-07T08:54:14;743.38;;;684.70;;
12214;SDS011;6170;42.206;24.142;2023-08-07T08:56:42;710.78;;;653.08;;
12214;SDS011;6170;42.206;24.142;2023-08-07T08:59:09;730.83;;;672.17;;
12214;SDS011;6170;42.206;24.142;2023-08-07T09:01:37;730.50;;;671.85;;
12214;SDS011;6170;42.206;24.142;2023-08-07T09:04:06;744.35;;;686.58;;
12214;SDS011;6170;42.206;24.142;2023-08-07T09:06:35;734.95;;;675.90;;
12214;SDS011;6170;42.206;24.142;2023-08-07T09:09:03;716.55;;;659.08;;
12214;SDS011;6170;42.206;24.142;2023-08-07T09:11:31;715.97;;;659.00;;
12214;SDS011;6170;42.206;24.142;2023-08-07T09:14:00;724.70;;;666.35;;
12214;SDS011;6170;42.206;24.142;2023-08-07T09:16:29;724.47;;;665.65;;
12214;SDS011;6170;42.206;24.142;2023-08-07T09:18:58;724.90;;;666.67;;
12214;SDS011;6170;42.206;24.142;2023-08-07T09:21:26;720.30;;;661.90;;
12214;SDS011;6170;42.206;24.142;2023-08-07T09:23:54;719.25;;;660.83;;
12214;SDS011;6170;42.206;24.142;2023-08-07T09:26:21;741.03;;;680.50;;
12214;SDS011;6170;42.206;24.142;2023-08-07T09:28:51;738.85;;;678.63;;
12214;SDS011;6170;42.206;24.142;2023-08-07T09:31:19;741.08;;;681.90;;
12214;SDS011;6170;42.206;24.142;2023-08-07T09:33:47;725.85;;;667.10;;
12214;SDS011;6170;42.206;24.142;2023-08-07T09:36:15;752.58;;;692.53;;
12214;SDS011;6170;42.206;24.142;2023-08-07T09:38:44;734.22;;;674.63;;
12214;SDS011;6170;42.206;24.142;2023-08-07T09:41:17;729.35;;;670.85;;
12214;SDS011;6170;42.206;24.142;2023-08-07T09:43:45;733.78;;;675.38;;
12214;SDS011;6170;42.206;24.142;2023-08-07T09:46:12;751.78;;;691.75;;
12214;SDS011;6170;42.206;24.142;2023-08-07T09:48:40;759.03;;;698.75;;
12214;SDS011;6170;42.206;24.142;2023-08-07T09:51:08;723.15;;;664.67;;
12214;SDS011;6170;42.206;24.142;2023-08-07T09:53:36;738.03;;;677.65;;
12214;SDS011;6170;42.206;24.142;2023-08-07T09:56:05;740.45;;;681.72;;
12214;SDS011;6170;42.206;24.142;2023-08-07T09:58:33;733.40;;;676.17;;
12214;SDS011;6170;42.206;24.142;2023-08-07T10:01:00;748.45;;;689.22;;
12214;SDS011;6170;42.206;24.142;2023-08-07T10:03:31;745.95;;;687.13;;
12214;SDS011;6170;42.206;24.142;2023-08-07T10:05:58;737.17;;;680.38;;
12214;SDS011;6170;42.206;24.142;2023-08-07T10:08:26;767.17;;;707.80;;
12214;SDS011;6170;42.206;24.142;2023-08-07T10:10:54;770.20;;;709.72;;
12214;SDS011;6170;42.206;24.142;2023-08-07T10:13:23;782.30;;;720.80;;
12214;SDS011;6170;42.206;24.142;2023-08-07T10:15:50;749.45;;;690.55;;
12214;SDS011;6170;42.206;24.142;2023-08-07T10:18:18;753.42;;;695.30;;
12214;SDS011;6170;42.206;24.142;2023-08-07T10:20:46;743.33;;;684.47;;
12214;SDS011;6170;42.206;24.142;2023-08-07T10:23:14;765.50;;;706.88;;
12214;SDS011;6170;42.206;24.142;2023-08-07T10:25:43;737.75;;;679.67;;
12214;SDS011;6170;42.206;24.142;2023-08-07T10:28:12;750.75;;;694.03;;
12214;SDS011;6170;42.206;24.142;2023-08-07T10:30:44;770.70;;;711.92;;
12214;SDS011;6170;42.206;24.142;2023-08-07T10:33:13;783.75;;;723.40;;
12214;SDS011;6170;42.206;24.142;2023-08-07T10:35:44;749.67;;;688.50;;
12214;SDS011;6170;42.206;24.142;2023-08-07T10:38:13;766.28;;;707.13;;
12214;SDS011;6170;42.206;24.142;2023-08-07T10:41:00;758.60;;;698.95;;
12214;SDS011;6170;42.206;24.142;2023-08-07T10:43:28;744.17;;;685.05;;
12214;SDS011;6170;42.206;24.142;2023-08-07T10:46:04;748.17;;;690.42;;
12214;SDS011;6170;42.206;24.142;2023-08-07T10:48:37;756.90;;;697.80;;
12214;SDS011;6170;42.206;24.142;2023-08-07T10:51:05;760.42;;;701.67;;
12214;SDS011;6170;42.206;24.142;2023-08-07T10:53:33;743.75;;;685.30;;
12214;SDS011;6170;42.206;24.142;2023-08-07T10:56:02;751.38;;;692.25;;
12214;SDS011;6170;42.206;24.142;2023-08-07T10:58:32;747.78;;;690.00;;
12214;SDS011;6170;42.206;24.142;2023-08-07T11:01:21;756.95;;;697.88;;
12214;SDS011;6170;42.206;24.142;2023-08-07T11:06:22;764.58;;;705.80;;
12214;SDS011;6170;42.206;24.142;2023-08-07T11:08:51;749.72;;;689.90;;
12214;SDS011;6170;42.206;24.142;2023-08-07T11:11:19;752.28;;;693.50;;
12214;SDS011;6170;42.206;24.142;2023-08-07T11:13:47;754.03;;;694.50;;
12214;SDS011;6170;42.206;24.142;2023-08-07T11:16:14;752.25;;;691.92;;
12214;SDS011;6170;42.206;24.142;2023-08-07T11:18:43;762.97;;;702.20;;
12214;SDS011;6170;42.206;24.142;2023-08-07T11:21:11;778.15;;;717.78;;
12214;SDS011;6170;42.206;24.142;2023-08-07T11:23:38;777.58;;;716.70;;
12214;SDS011;6170;42.206;24.142;2023-08-07T11:26:05;747.28;;;688.10;;
12214;SDS011;6170;42.206;24.142;2023-08-07T11:28:33;739.92;;;678.08;;
12214;SDS011;6170;42.206;24.142;2023-08-07T11:31:00;760.92;;;698.28;;
12214;SDS011;6170;42.206;24.142;2023-08-07T11:33:28;783.28;;;721.08;;
12214;SDS011;6170;42.206;24.142;2023-08-07T11:35:57;767.15;;;708.17;;
12214;SDS011;6170;42.206;24.142;2023-08-07T11:38:29;762.35;;;702.35;;
12214;SDS011;6170;42.206;24.142;2023-08-07T11:40:58;755.15;;;692.60;;
12214;SDS011;6170;42.206;24.142;2023-08-07T11:43:29;772.13;;;711.30;;
12214;SDS011;6170;42.206;24.142;2023-08-07T11:45:57;760.17;;;699.50;;
12214;SDS011;6170;42.206;24.142;2023-08-07T11:48:25;761.33;;;700.47;;
12214;SDS011;6170;42.206;24.142;2023-08-07T11:50:54;744.90;;;687.20;;
12214;SDS011;6170;42.206;24.142;2023-08-07T11:53:23;744.05;;;685.88;;
12214;SDS011;6170;42.206;24.142;2023-08-07T11:55:52;755.47;;;696.28;;
12214;SDS011;6170;42.206;24.142;2023-08-07T11:58:20;769.70;;;709.78;;
12214;SDS011;6170;42.206;24.142;2023-08-07T12:00:47;761.33;;;700.88;;
12214;SDS011;6170;42.206;24.142;2023-08-07T12:03:24;747.40;;;688.38;;
12214;SDS011;6170;42.206;24.142;2023-08-07T12:05:53;747.78;;;688.85;;
12214;SDS011;6170;42.206;24.142;2023-08-07T12:08:23;763.83;;;704.30;;
12214;SDS011;6170;42.206;24.142;2023-08-07T12:10:50;758.30;;;697.47;;
12214;SDS011;6170;42.206;24.142;2023-08-07T12:13:20;771.88;;;710.08;;
12214;SDS011;6170;42.206;24.142;2023-08-07T12:15:51;744.65;;;686.33;;
12214;SDS011;6170;42.206;24.142;2023-08-07T12:18:19;757.63;;;698.10;;
12214;SDS011;6170;42.206;24.142;2023-08-07T12:20:48;758.42;;;699.10;;
12214;SDS011;6170;42.206;24.142;2023-08-07T12:23:16;751.97;;;692.75;;
12214;SDS011;6170;42.206;24.142;2023-08-07T12:25:45;749.15;;;689.60;;
12214;SDS011;6170;42.206;24.142;2023-08-07T12:28:13;768.80;;;709.13;;
12214;SDS011;6170;42.206;24.142;2023-08-07T12:30:42;751.83;;;693.20;;
12214;SDS011;6170;42.206;24.142;2023-08-07T12:33:11;739.72;;;680.17;;
12214;SDS011;6170;42.206;24.142;2023-08-07T12:35:39;747.97;;;687.95;;
12214;SDS011;6170;42.206;24.142;2023-08-07T12:38:06;772.70;;;711.08;;
12214;SDS011;6170;42.206;24.142;2023-08-07T12:40:34;779.80;;;716.92;;
12214;SDS011;6170;42.206;24.142;2023-08-07T12:43:03;762.33;;;702.58;;
12214;SDS011;6170;42.206;24.142;2023-08-07T12:45:31;752.67;;;691.72;;
12214;SDS011;6170;42.206;24.142;2023-08-07T12:47:58;736.95;;;678.53;;
12214;SDS011;6170;42.206;24.142;2023-08-07T12:50:25;775.58;;;714.08;;
12214;SDS011;6170;42.206;24.142;2023-08-07T12:52:52;772.50;;;711.08;;
12214;SDS011;6170;42.206;24.142;2023-08-07T12:55:19;771.50;;;709.63;;
12214;SDS011;6170;42.206;24.142;2023-08-07T12:57:47;754.65;;;693.70;;
12214;SDS011;6170;42.206;24.142;2023-08-07T13:00:16;764.50;;;704.03;;
12214;SDS011;6170;42.206;24.142;2023-08-07T13:02:44;762.10;;;700.40;;
12214;SDS011;6170;42.206;24.142;2023-08-07T13:05:13;763.28;;;701.60;;
12214;SDS011;6170;42.206;24.142;2023-08-07T13:07:42;750.13;;;688.40;;
12214;SDS011;6170;42.206;24.142;2023-08-07T13:10:10;741.45;;;680.10;;
12214;SDS011;6170;42.206;24.142;2023-08-07T13:12:38;738.38;;;676.85;;
12214;SDS011;6170;42.206;24.142;2023-08-07T13:15:07;753.28;;;691.42;;
12214;SDS011;6170;42.206;24.142;2023-08-07T13:17:38;750.17;;;687.03;;
12214;SDS011;6170;42.206;24.142;2023-08-07T13:20:06;737.63;;;675.03;;
12214;SDS011;6170;42.206;24.142;2023-08-07T13:22:34;737.60;;;675.65;;
12214;SDS011;6170;42.206;24.142;2023-08-07T13:25:01;780.10;;;718.05;;
12214;SDS011;6170;42.206;24.142;2023-08-07T13:27:29;772.67;;;713.05;;
12214;SDS011;6170;42.206;24.142;2023-08-07T13:29:57;741.45;;;679.65;;
12214;SDS011;6170;42.206;24.142;2023-08-07T13:32:24;743.90;;;682.22;;
12214;SDS011;6170;42.206;24.142;2023-08-07T13:34:53;755.97;;;692.47;;
12214;SDS011;6170;42.206;24.142;2023-08-07T13:37:20;733.78;;;672.50;;
12214;SDS011;6170;42.206;24.142;2023-08-07T13:39:48;755.22;;;691.50;;
12214;SDS011;6170;42.206;24.142;2023-08-07T13:42:17;745.85;;;684.53;;
12214;SDS011;6170;42.206;24.142;2023-08-07T13:44:44;794.28;;;731.95;;
12214;SDS011;6170;42.206;24.142;2023-08-07T13:47:11;752.72;;;688.97;;
12214;SDS011;6170;42.206;24.142;2023-08-07T13:49:39;759.33;;;695.53;;
12214;SDS011;6170;42.206;24.142;2023-08-07T13:52:08;786.25;;;725.22;;
12214;SDS011;6170;42.206;24.142;2023-08-07T13:54:35;763.08;;;698.97;;
12214;SDS011;6170;42.206;24.142;2023-08-07T13:57:02;733.50;;;671.28;;
12214;SDS011;6170;42.206;24.142;2023-08-07T13:59:29;761.58;;;698.33;;
12214;SDS011;6170;42.206;24.142;2023-08-07T14:01:56;734.97;;;672.25;;